Time;durP1;ratioP1;P1;durP2;ratioP2;P2;SDS_P1;SDS_P2;PMS_P1;PMS_P2;Temp;Humidity;BMP_temperature;BMP_pressure;BME280_temperature;BME280_humidity;BME280_pressure;Samples;Min_cycle;Max_cycle;Signal;HPM_P1;HPM_P2
2023/08/25 00:00:39;;;;;;;15.20;13.60;;;20.00;99.90;;;;;;5069305;28;20049;-51
2023/08/25 00:03:05;;;;;;;15.60;13.38;;;20.00;99.90;;;;;;5071329;28;20533;-50
2023/08/25 00:05:38;;;;;;;14.02;12.50;;;20.00;99.90;;;;;;5072587;28;20044;-50
2023/08/25 00:08:04;;;;;;;16.00;13.52;;;20.00;99.90;;;;;;5071169;28;20041;-50
2023/08/25 00:10:30;;;;;;;17.13;13.32;;;20.00;99.90;;;;;;5071951;28;20086;-52
2023/08/25 00:12:55;;;;;;;16.02;13.35;;;20.00;99.90;;;;;;5071475;28;20045;-51
2023/08/25 00:15:21;;;;;;;16.80;14.40;;;20.00;99.90;;;;;;5071177;28;20387;-50
2023/08/25 00:17:47;;;;;;;18.13;14.63;;;19.90;99.90;;;;;;5072387;28;20094;-51
2023/08/25 00:20:13;;;;;;;18.20;14.75;;;19.90;99.90;;;;;;5072497;28;20472;-49
2023/08/25 00:22:40;;;;;;;16.70;15.00;;;19.80;99.90;;;;;;5071211;28;20472;-51
2023/08/25 00:25:06;;;;;;;17.55;15.75;;;19.80;99.90;;;;;;5072046;28;20154;-50
2023/08/25 00:27:32;;;;;;;20.65;15.02;;;19.70;99.90;;;;;;5071213;28;20038;-50
2023/08/25 00:29:57;;;;;;;19.08;17.10;;;19.70;99.90;;;;;;5071964;28;20327;-52
2023/08/25 00:32:23;;;;;;;19.55;17.45;;;19.70;99.90;;;;;;5072446;28;20036;-51
2023/08/25 00:34:49;;;;;;;19.58;17.55;;;19.80;99.90;;;;;;5071961;28;20032;-49
2023/08/25 00:37:15;;;;;;;17.88;15.90;;;19.70;99.90;;;;;;5069346;28;20485;-51
2023/08/25 00:39:40;;;;;;;18.85;16.95;;;19.70;99.90;;;;;;5070628;28;20033;-48
2023/08/25 00:42:06;;;;;;;20.30;17.10;;;19.70;99.90;;;;;;5071689;28;20044;-48
2023/08/25 00:44:32;;;;;;;19.30;16.65;;;19.80;99.90;;;;;;5071767;28;20101;-50
2023/08/25 00:46:59;;;;;;;19.45;17.35;;;19.80;99.90;;;;;;5071115;28;20094;-53
2023/08/25 00:49:25;;;;;;;19.48;17.38;;;20.00;99.90;;;;;;5070572;28;20120;-50
2023/08/25 00:51:52;;;;;;;20.10;18.00;;;19.90;99.90;;;;;;5071417;28;20040;-47
2023/08/25 00:54:25;;;;;;;20.88;18.67;;;19.80;99.90;;;;;;5069723;28;20101;-52
2023/08/25 00:56:51;;;;;;;21.30;19.05;;;19.90;99.90;;;;;;5071934;28;20041;-49
2023/08/25 00:59:18;;;;;;;20.17;17.92;;;19.80;99.90;;;;;;5070190;28;20432;-52
2023/08/25 01:01:44;;;;;;;20.55;18.35;;;20.10;99.90;;;;;;5071254;28;20068;-51
2023/08/25 01:04:10;;;;;;;19.95;17.90;;;20.00;99.90;;;;;;5071348;28;20067;-49
2023/08/25 01:06:37;;;;;;;22.75;20.42;;;20.00;99.90;;;;;;5069763;28;20080;-50
2023/08/25 01:09:04;;;;;;;21.90;19.70;;;19.90;99.90;;;;;;5071150;28;20072;-47
2023/08/25 01:12:10;;;;;;;22.38;19.73;;;20.10;99.90;;;;;;5070775;28;20094;-49
2023/08/25 01:14:47;;;;;;;23.02;20.63;;;20.00;99.90;;;;;;5103577;28;20052;-51
2023/08/25 01:17:31;;;;;;;23.90;20.63;;;20.10;99.90;;;;;;5070243;28;20044;-50
2023/08/25 01:20:08;;;;;;;24.63;22.10;;;20.00;99.90;;;;;;5071601;28;20047;-52
2023/08/25 01:22:55;;;;;;;24.17;21.77;;;20.00;99.90;;;;;;5071242;28;20487;-50
2023/08/25 01:25:24;;;;;;;26.08;23.27;;;20.00;99.90;;;;;;5071130;28;20036;-52
2023/08/25 01:27:50;;;;;;;25.85;23.20;;;20.10;99.90;;;;;;5071143;28;20036;-49
2023/08/25 01:30:16;;;;;;;24.73;22.30;;;20.10;99.90;;;;;;5070918;28;20036;-50
2023/08/25 01:32:42;;;;;;;25.17;22.75;;;20.20;99.90;;;;;;5069895;28;20123;-52
2023/08/25 01:35:08;;;;;;;26.42;23.73;;;20.20;99.90;;;;;;5071122;28;20037;-49
2023/08/25 01:37:45;;;;;;;26.58;23.58;;;20.20;99.90;;;;;;5071279;28;20371;-49
2023/08/25 01:40:20;;;;;;;25.70;22.98;;;20.20;99.90;;;;;;5070500;28;20055;-49
2023/08/25 01:42:49;;;;;;;26.23;23.45;;;20.20;99.90;;;;;;5071104;28;20041;-52
2023/08/25 01:45:17;;;;;;;28.30;24.70;;;20.00;99.90;;;;;;5070672;28;20146;-50
2023/08/25 01:47:45;;;;;;;26.42;23.65;;;20.10;99.90;;;;;;5069930;28;20418;-49
2023/08/25 01:50:13;;;;;;;30.23;24.30;;;20.00;99.90;;;;;;5069282;28;20041;-50
2023/08/25 01:52:39;;;;;;;26.30;23.58;;;20.10;99.90;;;;;;5070950;28;20136;-52
2023/08/25 01:55:05;;;;;;;28.45;25.65;;;20.10;99.90;;;;;;5070995;28;20506;-50
2023/08/25 01:57:31;;;;;;;28.48;25.55;;;19.90;99.90;;;;;;5070940;28;20028;-49
2023/08/25 01:59:56;;;;;;;26.55;23.75;;;19.90;99.90;;;;;;5070756;28;20041;-50
2023/08/25 02:02:22;;;;;;;28.40;25.48;;;19.90;99.90;;;;;;5069075;28;20100;-49
2023/08/25 02:04:48;;;;;;;28.75;25.70;;;19.90;99.90;;;;;;5070506;28;20111;-50
2023/08/25 02:07:13;;;;;;;31.15;23.90;;;20.10;99.90;;;;;;5070530;28;20087;-52
2023/08/25 02:09:39;;;;;;;27.83;24.85;;;20.00;99.90;;;;;;5070739;28;20066;-51
2023/08/25 02:12:05;;;;;;;28.50;25.50;;;19.80;99.90;;;;;;5070055;28;20036;-52
2023/08/25 02:14:32;;;;;;;28.27;25.23;;;20.00;99.90;;;;;;5070540;28;20128;-49
2023/08/25 02:16:57;;;;;;;28.63;25.60;;;19.90;99.90;;;;;;5070520;28;20090;-48
2023/08/25 02:19:23;;;;;;;28.90;25.85;;;19.90;99.90;;;;;;5070264;28;20036;-50
2023/08/25 02:21:49;;;;;;;31.95;28.05;;;19.70;99.90;;;;;;5070052;28;20029;-50
2023/08/25 02:24:14;;;;;;;30.33;27.17;;;19.70;99.90;;;;;;5070498;28;20040;-47
2023/08/25 02:26:40;;;;;;;31.52;26.38;;;19.80;99.90;;;;;;5070800;28;20040;-50
2023/08/25 02:29:06;;;;;;;28.25;25.25;;;19.80;99.90;;;;;;5070295;28;20484;-52
2023/08/25 02:31:32;;;;;;;29.70;26.67;;;19.80;99.90;;;;;;5070546;28;20040;-49
2023/08/25 02:33:57;;;;;;;28.35;25.48;;;19.80;99.90;;;;;;5070256;28;20079;-51
2023/08/25 02:36:23;;;;;;;26.77;23.98;;;19.60;99.90;;;;;;5070558;28;20032;-51
2023/08/25 02:38:49;;;;;;;29.65;26.45;;;19.70;99.90;;;;;;5070225;28;20087;-51
2023/08/25 02:41:14;;;;;;;30.90;27.25;;;19.50;99.90;;;;;;5069966;28;20036;-48
2023/08/25 02:43:40;;;;;;;34.17;30.60;;;19.70;99.90;;;;;;5070838;28;20082;-48
2023/08/25 02:46:06;;;;;;;33.05;29.40;;;19.50;99.90;;;;;;5070608;28;20043;-49
2023/08/25 02:48:31;;;;;;;34.03;29.83;;;19.40;99.90;;;;;;5070487;28;20041;-48
2023/08/25 02:50:57;;;;;;;31.13;27.77;;;19.50;99.90;;;;;;5070496;28;20480;-49
2023/08/25 02:53:23;;;;;;;32.75;29.25;;;19.40;99.90;;;;;;5070052;28;20041;-50
2023/08/25 02:55:49;;;;;;;34.58;30.95;;;19.60;99.90;;;;;;5070208;28;20024;-49
2023/08/25 02:58:14;;;;;;;31.52;28.15;;;19.30;99.90;;;;;;5070495;28;20111;-50
2023/08/25 03:00:40;;;;;;;32.00;28.63;;;19.50;99.90;;;;;;5070335;28;20462;-50
2023/08/25 03:03:06;;;;;;;36.40;30.80;;;19.40;99.90;;;;;;5068895;28;20036;-52
2023/08/25 03:05:31;;;;;;;37.35;33.08;;;19.40;99.90;;;;;;5069690;28;20130;-50
2023/08/25 03:07:57;;;;;;;36.20;31.45;;;19.20;99.90;;;;;;5068387;28;20079;-50
2023/08/25 03:10:23;;;;;;;37.80;33.60;;;19.30;99.90;;;;;;5069606;28;20563;-50
2023/08/25 03:12:49;;;;;;;38.88;33.85;;;19.20;99.90;;;;;;5068832;28;20109;-52
2023/08/25 03:15:14;;;;;;;39.60;34.47;;;19.10;99.90;;;;;;5070272;28;20074;-48
2023/08/25 03:17:41;;;;;;;41.45;35.95;;;19.40;99.90;;;;;;5071915;28;20040;-49
2023/08/25 03:20:07;;;;;;;41.15;35.75;;;19.10;99.90;;;;;;5073696;28;20378;-50
2023/08/25 03:22:33;;;;;;;45.45;37.70;;;19.30;99.90;;;;;;5072541;28;20091;-51
2023/08/25 03:24:59;;;;;;;40.67;34.47;;;19.00;99.90;;;;;;5072008;28;20067;-48
2023/08/25 03:27:25;;;;;;;42.00;37.08;;;19.10;99.90;;;;;;5073479;28;20024;-50
2023/08/25 03:29:50;;;;;;;51.67;41.40;;;19.00;99.90;;;;;;5072970;28;20083;-49
2023/08/25 03:32:16;;;;;;;47.92;39.47;;;19.00;99.90;;;;;;5072279;28;20045;-49
2023/08/25 03:34:42;;;;;;;44.20;38.05;;;19.10;99.90;;;;;;5055115;28;20073;-48
2023/08/25 03:37:07;;;;;;;42.03;36.88;;;19.20;99.90;;;;;;5073376;28;20119;-52
2023/08/25 03:39:34;;;;;;;40.28;34.85;;;19.10;99.90;;;;;;5073217;28;20372;-48
2023/08/25 03:42:00;;;;;;;41.38;35.70;;;18.90;99.90;;;;;;5072959;28;20499;-50
2023/08/25 03:44:25;;;;;;;38.30;34.28;;;19.00;99.90;;;;;;5073237;28;20119;-49
2023/08/25 03:46:51;;;;;;;36.20;32.50;;;18.90;99.90;;;;;;5072987;28;20052;-51
2023/08/25 03:49:17;;;;;;;38.15;34.10;;;19.10;99.90;;;;;;5072997;28;20430;-48
2023/08/25 03:51:42;;;;;;;41.67;34.63;;;19.10;99.90;;;;;;5072799;28;20047;-48
2023/08/25 03:54:08;;;;;;;37.88;33.97;;;18.90;99.90;;;;;;5072502;28;20395;-50
2023/08/25 03:56:34;;;;;;;43.50;37.42;;;19.00;99.90;;;;;;5072551;28;20162;-50
2023/08/25 03:58:59;;;;;;;37.80;33.47;;;18.80;99.90;;;;;;5072685;28;20480;-50
2023/08/25 04:01:25;;;;;;;45.60;37.38;;;18.90;99.90;;;;;;5072809;28;20040;-52
2023/08/25 04:03:51;;;;;;;45.17;37.35;;;19.00;99.90;;;;;;5072921;28;20127;-51
2023/08/25 04:06:16;;;;;;;45.72;38.67;;;18.70;99.90;;;;;;5072542;28;20060;-49
2023/08/25 04:08:42;;;;;;;41.83;35.92;;;18.70;99.90;;;;;;5072438;28;20135;-50
2023/08/25 04:11:08;;;;;;;41.42;35.67;;;18.90;99.90;;;;;;5071814;28;20123;-52
2023/08/25 04:13:34;;;;;;;42.22;35.10;;;18.90;99.90;;;;;;5072681;28;20033;-50
2023/08/25 04:16:01;;;;;;;44.50;38.60;;;18.70;99.90;;;;;;5072609;28;20472;-50
2023/08/25 04:18:27;;;;;;;44.92;38.17;;;18.90;99.90;;;;;;5071281;28;20037;-50
2023/08/25 04:20:53;;;;;;;46.90;37.67;;;18.90;99.90;;;;;;5072398;28;20048;-49
2023/08/25 04:23:18;;;;;;;43.42;37.25;;;18.90;99.90;;;;;;5072129;28;20040;-50
2023/08/25 04:25:44;;;;;;;47.95;38.30;;;18.80;99.90;;;;;;5072515;28;20040;-50
2023/08/25 04:28:10;;;;;;;40.72;35.35;;;18.80;99.90;;;;;;5072007;28;20475;-48
2023/08/25 04:30:36;;;;;;;36.38;32.47;;;18.60;99.90;;;;;;5071769;28;20044;-50
2023/08/25 04:33:02;;;;;;;49.25;39.15;;;18.60;99.90;;;;;;5070367;28;20101;-50
2023/08/25 04:35:28;;;;;;;38.15;34.10;;;18.50;99.90;;;;;;5071981;28;20463;-50
2023/08/25 04:37:53;;;;;;;40.83;35.10;;;18.70;99.90;;;;;;5072228;28;20449;-47
2023/08/25 04:40:20;;;;;;;46.97;38.92;;;18.60;99.90;;;;;;5071745;28;20040;-52
2023/08/25 04:42:46;;;;;;;45.50;38.70;;;18.50;99.90;;;;;;5071684;28;20064;-50
2023/08/25 04:45:13;;;;;;;40.03;35.67;;;18.50;99.90;;;;;;5072182;28;20068;-50
2023/08/25 04:47:39;;;;;;;47.15;38.67;;;18.50;99.90;;;;;;5071939;28;20411;-49
2023/08/25 04:50:07;;;;;;;45.33;38.35;;;18.50;99.90;;;;;;5053536;28;20043;-51
2023/08/25 04:52:36;;;;;;;45.25;39.22;;;18.60;99.90;;;;;;5071850;28;20025;-51
2023/08/25 04:55:05;;;;;;;43.45;37.35;;;18.60;99.90;;;;;;5071866;28;20043;-49
2023/08/25 04:57:31;;;;;;;51.88;40.05;;;18.40;99.90;;;;;;5071510;28;20115;-50
2023/08/25 04:59:58;;;;;;;44.90;38.60;;;18.70;99.90;;;;;;5071757;28;20537;-51
2023/08/25 05:02:24;;;;;;;42.13;36.40;;;18.60;99.90;;;;;;5070649;28;20044;-50
2023/08/25 05:04:49;;;;;;;53.17;41.92;;;18.50;99.90;;;;;;5071648;28;20043;-50
2023/08/25 05:07:15;;;;;;;46.30;39.30;;;18.50;99.90;;;;;;5069810;28;20139;-47
2023/08/25 05:09:41;;;;;;;51.80;42.13;;;18.50;99.90;;;;;;5071292;28;20055;-51
2023/08/25 05:12:07;;;;;;;58.05;45.42;;;18.70;99.90;;;;;;5070992;28;20047;-49
2023/08/25 05:14:33;;;;;;;55.90;44.38;;;18.70;99.90;;;;;;5071600;28;20039;-50
2023/08/25 05:16:59;;;;;;;61.28;45.50;;;18.60;99.90;;;;;;5069866;28;20041;-51
2023/08/25 05:19:25;;;;;;;53.05;42.42;;;18.80;99.90;;;;;;5071185;28;20068;-47
2023/08/25 05:21:51;;;;;;;58.40;44.08;;;18.90;99.90;;;;;;5071242;28;20045;-51
2023/08/25 05:24:25;;;;;;;56.08;44.00;;;18.80;99.90;;;;;;5070738;28;20115;-51
2023/08/25 05:26:51;;;;;;;54.80;43.45;;;18.80;99.90;;;;;;5071181;28;20040;-48
2023/08/25 05:29:20;;;;;;;50.53;42.55;;;18.70;99.90;;;;;;5071316;28;20047;-50
2023/08/25 05:31:47;;;;;;;58.53;45.03;;;19.00;99.90;;;;;;5071075;28;20029;-50
2023/08/25 05:34:13;;;;;;;61.75;46.83;;;19.10;99.90;;;;;;5071108;28;20420;-50
2023/08/25 05:36:39;;;;;;;60.60;47.13;;;18.80;99.90;;;;;;5069802;28;20116;-51
2023/08/25 05:39:05;;;;;;;59.15;46.22;;;19.10;99.90;;;;;;5069274;28;20103;-52
2023/08/25 05:41:31;;;;;;;50.42;42.40;;;19.00;99.90;;;;;;5069509;28;20434;-51
2023/08/25 05:43:56;;;;;;;52.47;42.80;;;19.30;99.90;;;;;;5070684;28;20041;-52
2023/08/25 05:46:22;;;;;;;52.90;42.33;;;19.20;99.90;;;;;;5069726;28;20203;-50
2023/08/25 05:48:48;;;;;;;50.55;41.60;;;19.40;99.90;;;;;;5069671;28;20475;-52
2023/08/25 05:51:14;;;;;;;55.70;43.85;;;19.10;99.90;;;;;;5069306;28;20037;-49
2023/08/25 05:53:40;;;;;;;54.95;43.88;;;19.30;99.90;;;;;;5070699;28;20079;-51
2023/08/25 05:56:06;;;;;;;56.83;43.20;;;19.50;99.90;;;;;;5069146;28;20076;-49
2023/08/25 05:58:31;;;;;;;59.72;44.58;;;19.40;99.90;;;;;;5070729;28;20032;-49
2023/08/25 06:00:58;;;;;;;57.85;44.83;;;19.60;99.90;;;;;;5070612;28;20560;-51
2023/08/25 06:03:25;;;;;;;52.85;42.05;;;19.60;99.90;;;;;;5070723;28;20494;-51
2023/08/25 06:05:53;;;;;;;54.63;43.30;;;19.40;99.90;;;;;;5070624;28;20056;-48
2023/08/25 06:08:22;;;;;;;53.85;42.42;;;19.60;99.90;;;;;;5069902;28;20498;-51
2023/08/25 06:10:51;;;;;;;53.30;43.63;;;19.40;99.90;;;;;;5070216;28;20511;-50
2023/08/25 06:13:17;;;;;;;52.53;42.60;;;19.70;99.90;;;;;;5070683;28;20379;-49
2023/08/25 06:15:43;;;;;;;57.13;43.45;;;19.70;99.90;;;;;;5070876;28;20040;-50
2023/08/25 06:18:09;;;;;;;54.85;43.85;;;19.70;99.90;;;;;;5070632;28;20033;-49
2023/08/25 06:20:35;;;;;;;63.45;47.33;;;19.50;99.90;;;;;;5070527;28;20377;-49
2023/08/25 06:23:01;;;;;;;59.65;46.83;;;19.50;99.90;;;;;;5070368;28;20037;-52
2023/08/25 06:25:26;;;;;;;61.22;46.72;;;19.50;99.90;;;;;;5069501;28;20050;-51
2023/08/25 06:27:53;;;;;;;68.45;48.97;;;19.60;99.90;;;;;;5070362;28;20040;-50
2023/08/25 06:30:18;;;;;;;71.00;49.35;;;19.80;99.90;;;;;;5069168;28;20036;-52
2023/08/25 06:32:44;;;;;;;68.40;46.40;;;19.50;99.90;;;;;;5070567;28;20029;-50
2023/08/25 06:35:13;;;;;;;69.75;48.67;;;19.40;99.90;;;;;;5070573;28;20182;-50
2023/08/25 06:37:39;;;;;;;75.45;48.70;;;19.60;99.90;;;;;;5070503;28;20091;-49
2023/08/25 06:40:08;;;;;;;65.43;47.70;;;19.30;99.90;;;;;;5070632;28;20071;-51
2023/08/25 06:42:34;;;;;;;65.00;47.53;;;19.30;99.90;;;;;;5069694;28;20517;-53
2023/08/25 06:45:00;;;;;;;68.43;48.42;;;19.50;99.90;;;;;;5070228;28;20029;-52
2023/08/25 06:47:27;;;;;;;69.40;50.20;;;19.60;99.90;;;;;;5070170;28;20048;-47
2023/08/25 06:49:54;;;;;;;62.80;46.67;;;19.60;99.90;;;;;;5070565;28;20127;-49
2023/08/25 06:52:20;;;;;;;62.28;46.95;;;19.60;99.90;;;;;;5072895;28;20047;-51
2023/08/25 06:54:46;;;;;;;61.45;46.28;;;19.70;99.90;;;;;;5074180;28;20036;-52
2023/08/25 06:57:12;;;;;;;62.83;46.38;;;19.80;99.90;;;;;;5074218;28;20458;-51
2023/08/25 06:59:38;;;;;;;63.25;47.53;;;19.70;99.90;;;;;;5073911;28;20037;-53
2023/08/25 07:02:03;;;;;;;62.25;46.55;;;19.60;99.90;;;;;;5074059;28;20078;-51
2023/08/25 07:04:30;;;;;;;65.00;47.20;;;19.90;99.90;;;;;;5073504;28;20036;-51
2023/08/25 07:06:55;;;;;;;62.15;46.42;;;20.10;99.90;;;;;;5073483;28;20105;-48
2023/08/25 07:09:21;;;;;;;65.68;47.58;;;19.80;99.90;;;;;;5074083;28;20028;-50
2023/08/25 07:11:47;;;;;;;54.78;43.38;;;20.20;99.90;;;;;;5073269;28;20567;-51
2023/08/25 07:14:12;;;;;;;54.60;42.10;;;20.10;99.90;;;;;;5073574;28;20069;-50
2023/08/25 07:16:38;;;;;;;59.15;43.65;;;20.30;99.90;;;;;;5073805;28;20051;-51
2023/08/25 07:19:04;;;;;;;57.28;45.40;;;20.40;99.90;;;;;;5073177;28;20045;-49
2023/08/25 07:21:30;;;;;;;50.85;41.45;;;20.10;99.90;;;;;;5073419;28;20044;-50
2023/08/25 07:23:55;;;;;;;46.25;36.90;;;20.30;99.90;;;;;;5073499;28;20101;-53
2023/08/25 07:26:22;;;;;;;48.35;37.63;;;20.50;99.90;;;;;;5073538;28;20079;-53
2023/08/25 07:28:47;;;;;;;44.63;36.20;;;20.30;99.90;;;;;;5073125;28;20043;-51
2023/08/25 07:31:13;;;;;;;45.22;37.45;;;20.70;99.90;;;;;;5073432;28;20041;-53
2023/08/25 07:33:41;;;;;;;45.08;36.78;;;20.50;99.90;;;;;;5073744;28;20134;-49
2023/08/25 07:36:06;;;;;;;40.33;34.70;;;20.90;99.90;;;;;;5073445;28;20024;-53
2023/08/25 07:38:32;;;;;;;38.67;31.00;;;21.00;99.90;;;;;;5073163;28;20364;-54
2023/08/25 07:40:58;;;;;;;32.35;27.70;;;21.00;99.90;;;;;;5072582;28;20186;-50
2023/08/25 07:43:24;;;;;;;26.27;22.42;;;21.20;99.90;;;;;;5071919;28;20033;-48
2023/08/25 07:45:50;;;;;;;24.63;20.00;;;21.30;99.90;;;;;;5073175;28;20422;-51
2023/08/25 07:48:15;;;;;;;22.83;18.10;;;21.10;99.90;;;;;;5071744;28;20099;-50
2023/08/25 07:50:41;;;;;;;24.23;18.88;;;21.20;99.90;;;;;;5072610;28;20119;-48
2023/08/25 07:53:07;;;;;;;25.02;20.02;;;21.20;99.90;;;;;;5070590;28;20033;-53
2023/08/25 07:55:34;;;;;;;22.65;18.10;;;21.20;99.90;;;;;;5072718;28;20127;-54
2023/08/25 07:58:00;;;;;;;21.38;17.38;;;21.30;99.90;;;;;;5073069;28;20090;-51
2023/08/25 08:00:27;;;;;;;25.05;18.35;;;21.30;99.90;;;;;;5072798;28;20434;-53
2023/08/25 08:02:53;;;;;;;22.60;17.92;;;21.40;99.90;;;;;;5071470;28;20372;-52
2023/08/25 08:05:19;;;;;;;24.15;18.13;;;21.30;99.90;;;;;;5072648;28;20115;-52
2023/08/25 08:07:47;;;;;;;23.10;18.67;;;21.40;99.90;;;;;;5072635;28;20044;-54
2023/08/25 08:10:13;;;;;;;26.05;18.23;;;21.40;99.90;;;;;;5072711;28;20545;-50
2023/08/25 08:12:41;;;;;;;23.90;18.00;;;21.60;99.90;;;;;;5071982;28;20041;-52
2023/08/25 08:15:08;;;;;;;22.70;17.52;;;21.60;99.90;;;;;;5072626;28;20055;-52
2023/08/25 08:17:34;;;;;;;22.90;17.58;;;21.50;99.90;;;;;;5072526;28;20442;-50
2023/08/25 08:20:00;;;;;;;23.15;17.25;;;21.40;99.90;;;;;;5071113;28;20124;-51
2023/08/25 08:22:27;;;;;;;25.25;18.95;;;21.60;99.90;;;;;;5071827;28;20056;-53
2023/08/25 08:24:53;;;;;;;23.50;19.20;;;21.60;99.90;;;;;;5072420;28;20049;-52
2023/08/25 08:27:19;;;;;;;24.13;20.58;;;21.30;99.90;;;;;;5072106;28;20122;-51
2023/08/25 08:29:47;;;;;;;27.15;20.75;;;21.40;99.90;;;;;;5072139;28;20029;-52
2023/08/25 08:32:13;;;;;;;26.50;20.20;;;21.50;99.90;;;;;;5071919;28;20076;-51
2023/08/25 08:34:39;;;;;;;29.83;21.67;;;21.50;99.90;;;;;;5070599;28;20041;-53
2023/08/25 08:37:08;;;;;;;28.08;22.65;;;21.40;99.90;;;;;;5072046;28;20058;-51
2023/08/25 08:39:34;;;;;;;27.45;21.23;;;21.40;99.90;;;;;;5071161;28;20033;-50
2023/08/25 08:42:03;;;;;;;29.67;22.65;;;21.30;99.90;;;;;;5071455;28;20479;-50
2023/08/25 08:44:36;;;;;;;27.42;21.15;;;21.40;99.90;;;;;;5070408;28;20068;-52
2023/08/25 08:47:03;;;;;;;28.90;21.90;;;21.40;99.90;;;;;;5071741;28;20037;-54
2023/08/25 08:49:31;;;;;;;26.85;20.98;;;21.30;99.90;;;;;;5071646;28;20116;-54
2023/08/25 08:51:58;;;;;;;28.10;21.92;;;21.40;99.90;;;;;;5070999;28;20036;-50
2023/08/25 08:54:28;;;;;;;27.33;21.77;;;21.40;99.90;;;;;;5071176;28;20040;-54
2023/08/25 08:56:54;;;;;;;26.88;22.55;;;21.40;99.90;;;;;;5083520;28;20105;-53
2023/08/25 08:59:20;;;;;;;26.15;22.00;;;21.30;99.90;;;;;;5069835;28;20032;-54
2023/08/25 09:01:48;;;;;;;28.02;21.55;;;21.40;99.90;;;;;;5071489;28;20036;-52
2023/08/25 09:04:15;;;;;;;32.95;23.33;;;21.30;99.90;;;;;;5071237;28;20040;-53
2023/08/25 09:06:43;;;;;;;28.55;23.00;;;21.30;99.90;;;;;;5071142;28;20044;-50
2023/08/25 09:09:09;;;;;;;30.80;23.48;;;21.20;99.90;;;;;;5071399;28;20055;-51
2023/08/25 09:11:38;;;;;;;27.50;23.00;;;21.30;99.90;;;;;;5070977;28;20383;-52
2023/08/25 09:14:07;;;;;;;30.50;24.17;;;21.30;99.90;;;;;;5070340;28;20380;-54
2023/08/25 09:16:35;;;;;;;30.17;24.42;;;21.30;99.90;;;;;;5071631;28;20189;-52
2023/08/25 09:19:02;;;;;;;29.33;24.13;;;21.20;99.90;;;;;;5071003;28;20029;-52
2023/08/25 09:21:28;;;;;;;32.55;25.17;;;21.20;99.90;;;;;;5071385;28;20041;-52
2023/08/25 09:24:00;;;;;;;31.33;25.20;;;21.30;99.90;;;;;;5071446;28;20043;-53
2023/08/25 09:26:27;;;;;;;34.47;24.63;;;21.20;99.90;;;;;;5068663;28;20048;-52
2023/08/25 09:28:54;;;;;;;31.92;26.02;;;21.30;99.90;;;;;;5070586;28;20067;-50
2023/08/25 09:31:28;;;;;;;30.80;24.73;;;21.40;99.90;;;;;;5068900;28;20048;-49
2023/08/25 09:34:07;;;;;;;30.02;24.88;;;21.40;99.90;;;;;;5070792;28;20134;-53
2023/08/25 09:36:34;;;;;;;31.30;25.98;;;21.60;99.90;;;;;;5070573;28;20086;-51
2023/08/25 09:39:01;;;;;;;32.35;25.60;;;21.70;99.90;;;;;;5070418;28;20037;-53
2023/08/25 09:41:30;;;;;;;30.83;25.98;;;21.80;99.90;;;;;;5070153;28;20119;-53
2023/08/25 09:43:57;;;;;;;34.50;26.10;;;21.90;99.90;;;;;;5070146;28;20047;-54
2023/08/25 09:46:27;;;;;;;31.25;26.33;;;21.90;99.90;;;;;;5070633;28;20561;-52
2023/08/25 09:49:00;;;;;;;31.83;26.65;;;21.90;99.90;;;;;;5070264;28;20085;-51
2023/08/25 09:51:34;;;;;;;32.08;26.77;;;21.80;99.90;;;;;;5069251;28;20040;-50
2023/08/25 09:54:05;;;;;;;35.80;24.23;;;21.90;99.90;;;;;;5068669;28;20123;-53
2023/08/25 09:56:33;;;;;;;34.40;26.60;;;21.80;99.90;;;;;;5069682;28;20044;-53
2023/08/25 09:59:00;;;;;;;34.25;26.42;;;21.80;99.90;;;;;;5070153;28;20035;-51
2023/08/25 10:01:26;;;;;;;37.97;27.35;;;21.80;99.90;;;;;;5069869;28;20044;-51
2023/08/25 10:03:53;;;;;;;35.22;27.33;;;21.90;99.90;;;;;;5070195;28;20387;-52
2023/08/25 10:06:19;;;;;;;34.17;26.23;;;21.90;99.90;;;;;;5069165;28;20056;-53
2023/08/25 10:08:47;;;;;;;31.17;26.10;;;21.90;99.90;;;;;;5069306;28;20045;-52
2023/08/25 10:11:14;;;;;;;30.48;25.63;;;21.90;99.90;;;;;;5068479;28;20047;-53
2023/08/25 10:13:42;;;;;;;31.77;25.55;;;22.00;99.90;;;;;;5069335;28;20115;-51
2023/08/25 10:16:10;;;;;;;31.52;25.90;;;22.10;99.90;;;;;;5069927;28;20039;-51
2023/08/25 10:18:39;;;;;;;28.45;24.88;;;22.30;99.90;;;;;;5070009;28;20080;-52
2023/08/25 10:21:06;;;;;;;29.77;24.02;;;22.30;99.90;;;;;;5070100;28;20076;-50
2023/08/25 10:23:36;;;;;;;31.02;24.30;;;22.40;99.90;;;;;;5069017;28;20036;-49
2023/08/25 10:26:03;;;;;;;31.30;24.65;;;22.40;99.90;;;;;;5069850;28;20067;-51
2023/08/25 10:28:30;;;;;;;30.05;24.25;;;22.30;99.90;;;;;;5067374;28;20131;-50
2023/08/25 10:30:56;;;;;;;32.15;23.95;;;22.20;99.90;;;;;;5073036;28;20071;-51
2023/08/25 10:33:22;;;;;;;29.63;23.65;;;22.20;99.90;;;;;;5070598;28;20040;-50
2023/08/25 10:35:48;;;;;;;28.48;23.92;;;22.10;99.90;;;;;;5072753;28;20056;-49
2023/08/25 10:38:34;;;;;;;30.50;24.60;;;22.00;99.90;;;;;;5072716;28;20036;-51
2023/08/25 10:41:13;;;;;;;30.52;23.20;;;22.00;99.90;;;;;;5071213;28;20086;-50
2023/08/25 10:43:40;;;;;;;32.35;25.05;;;21.90;99.90;;;;;;5065476;28;20048;-52
2023/08/25 10:46:10;;;;;;;32.38;25.02;;;22.10;99.90;;;;;;5071525;28;20045;-52
2023/08/25 10:48:40;;;;;;;31.63;25.02;;;22.00;99.90;;;;;;5068771;28;20394;-51
2023/08/25 10:51:17;;;;;;;31.90;24.08;;;22.00;99.90;;;;;;5070820;28;20082;-50
2023/08/25 10:53:53;;;;;;;31.40;23.75;;;22.00;99.90;;;;;;5072090;28;20086;-50
2023/08/25 10:56:20;;;;;;;31.63;24.05;;;22.10;99.90;;;;;;5070531;28;20479;-49
2023/08/25 10:59:20;;;;;;;31.98;24.67;;;22.10;99.90;;;;;;5072155;28;20040;-52
2023/08/25 11:01:57;;;;;;;30.88;24.75;;;22.10;99.90;;;;;;5059869;28;20048;-52
2023/08/25 11:04:25;;;;;;;30.75;22.15;;;22.00;99.90;;;;;;5071803;28;20071;-51
2023/08/25 11:06:56;;;;;;;29.42;24.30;;;22.00;99.90;;;;;;5071581;28;20135;-53
2023/08/25 11:09:26;;;;;;;31.02;26.17;;;22.10;99.90;;;;;;5071445;28;20063;-52
2023/08/25 11:11:58;;;;;;;30.33;26.80;;;22.00;99.90;;;;;;5069467;28;20590;-51
2023/08/25 11:14:31;;;;;;;31.77;27.55;;;21.90;99.90;;;;;;5071468;28;20123;-51
2023/08/25 11:16:58;;;;;;;37.45;27.42;;;21.90;99.90;;;;;;5071351;28;20043;-53
2023/08/25 11:19:25;;;;;;;30.92;26.42;;;21.80;99.90;;;;;;5071351;28;20585;-52
2023/08/25 11:22:02;;;;;;;33.70;26.90;;;21.80;99.90;;;;;;5070141;28;20044;-52
2023/08/25 11:24:32;;;;;;;33.58;28.70;;;21.80;99.90;;;;;;5072475;28;20059;-52
2023/08/25 11:27:22;;;;;;;32.25;27.38;;;21.70;99.90;;;;;;5071161;28;20033;-51
2023/08/25 11:29:49;;;;;;;35.25;29.63;;;21.80;99.90;;;;;;5071251;28;20048;-53
2023/08/25 11:32:15;;;;;;;36.00;30.17;;;21.80;99.90;;;;;;5070923;28;20516;-51
2023/08/25 11:34:46;;;;;;;34.35;29.92;;;21.70;99.90;;;;;;5071428;28;20094;-51
2023/08/25 11:37:14;;;;;;;34.63;30.42;;;21.60;99.90;;;;;;5066432;28;20036;-53
2023/08/25 11:39:44;;;;;;;40.42;31.13;;;21.60;99.90;;;;;;5067923;28;20036;-51
2023/08/25 11:42:10;;;;;;;34.00;29.02;;;21.70;99.90;;;;;;5070217;28;20041;-52
2023/08/25 11:44:40;;;;;;;36.58;29.00;;;21.60;99.90;;;;;;5069956;28;20055;-53
2023/08/25 11:47:06;;;;;;;33.28;29.33;;;21.80;99.90;;;;;;5068958;28;20047;-53
2023/08/25 11:49:33;;;;;;;28.13;24.73;;;21.60;99.90;;;;;;5070063;28;20385;-53
2023/08/25 11:52:00;;;;;;;26.60;22.52;;;21.80;99.90;;;;;;5071974;28;20045;-51
2023/08/25 11:54:26;;;;;;;27.90;23.23;;;21.80;99.90;;;;;;5069388;28;20074;-51
2023/08/25 11:56:52;;;;;;;25.48;21.48;;;21.80;99.90;;;;;;5071443;28;20033;-49
2023/08/25 11:59:19;;;;;;;26.33;22.27;;;21.90;99.90;;;;;;5073212;28;20068;-52
2023/08/25 12:02:01;;;;;;;24.25;21.65;;;21.80;99.90;;;;;;5069184;28;20040;-53
2023/08/25 12:04:26;;;;;;;23.17;20.75;;;21.80;99.90;;;;;;5069899;28;20460;-52
2023/08/25 12:06:54;;;;;;;25.10;21.33;;;21.80;99.90;;;;;;5069839;28;20096;-53
2023/08/25 12:09:24;;;;;;;23.52;21.00;;;21.90;99.90;;;;;;5072351;28;20044;-50
2023/08/25 12:11:56;;;;;;;25.27;22.48;;;21.80;99.90;;;;;;5071894;28;20068;-51
2023/08/25 12:14:29;;;;;;;24.23;20.38;;;21.80;99.90;;;;;;5072209;28;20102;-52
2023/08/25 12:16:58;;;;;;;21.65;19.33;;;21.70;99.90;;;;;;5067678;28;20036;-51
2023/08/25 12:19:27;;;;;;;23.50;19.77;;;21.70;99.90;;;;;;5071291;28;20040;-51
2023/08/25 12:21:54;;;;;;;21.65;18.67;;;21.80;99.90;;;;;;5071947;28;20508;-50
2023/08/25 12:24:20;;;;;;;21.48;19.08;;;21.80;99.90;;;;;;5072226;28;20109;-50
2023/08/25 12:26:46;;;;;;;23.48;19.58;;;21.70;99.90;;;;;;5072213;28;20037;-52
2023/08/25 12:29:12;;;;;;;21.10;18.77;;;21.70;99.90;;;;;;5072074;28;20070;-52